Time;durP1;ratioP1;P1;durP2;ratioP2;P2;SDS_P1;SDS_P2;PMS_P1;PMS_P2;Temp;Humidity;BMP_temperature;BMP_pressure;BME280_temperature;BME280_humidity;BME280_pressure;Samples;Min_cycle;Max_cycle;Signal;HPM_P1;HPM_P2
2023/10/23 00:02:19;;;;;;;;;;;18.60;92.40;;;;;;6067502;23;19909;-73
2023/10/23 00:04:45;;;;;;;;;;;18.70;92.70;;;;;;6067393;23;19949;-73
2023/10/23 00:07:10;;;;;;;;;;;18.70;92.70;;;;;;6067540;23;20241;-73
2023/10/23 00:09:36;;;;;;;;;;;18.70;92.70;;;;;;6068105;23;19980;-80
2023/10/23 00:12:02;;;;;;;;;;;18.80;92.80;;;;;;6067356;23;19913;-80
2023/10/23 00:14:27;;;;;;;;;;;18.80;92.80;;;;;;6067387;23;19902;-79
2023/10/23 00:16:53;;;;;;;;;;;18.80;92.80;;;;;;6067489;23;20374;-79
2023/10/23 00:19:18;;;;;;;;;;;18.80;92.90;;;;;;6067297;23;19901;-79
2023/10/23 00:21:44;;;;;;;;;;;18.70;92.80;;;;;;6067225;23;19906;-79
2023/10/23 00:24:10;;;;;;;;;;;18.70;92.80;;;;;;6067367;23;19902;-79
2023/10/23 00:26:36;;;;;;;;;;;18.70;93.00;;;;;;6068463;23;19942;-79
2023/10/23 00:29:01;;;;;;;;;;;18.80;92.80;;;;;;6067376;23;20399;-80
2023/10/23 00:31:27;;;;;;;;;;;19.10;92.90;;;;;;6067195;23;20000;-79
2023/10/23 00:33:53;;;;;;;;;;;18.70;92.80;;;;;;6067649;23;19949;-79
2023/10/23 00:36:18;;;;;;;;;;;18.70;92.80;;;;;;6067421;23;19901;-79
2023/10/23 00:38:44;;;;;;;;;;;18.70;92.90;;;;;;6067173;23;19906;-79
2023/10/23 00:41:09;;;;;;;;;;;18.60;93.00;;;;;;6068065;23;19908;-79
2023/10/23 00:43:35;;;;;;;;;;;18.80;92.70;;;;;;6066918;23;20249;-79
2023/10/23 00:46:04;;;;;;;;;;;18.80;92.90;;;;;;6067159;23;20274;-79
2023/10/23 00:48:30;;;;;;;;;;;18.80;92.90;;;;;;6067237;23;19908;-79
2023/10/23 00:50:57;;;;;;;;;;;18.80;93.00;;;;;;6067272;23;19913;-79
2023/10/23 00:53:25;;;;;;;;;;;18.70;93.00;;;;;;6067694;23;19909;-79
2023/10/23 00:55:52;;;;;;;;;;;18.80;92.80;;;;;;6067994;23;19909;-79
2023/10/23 00:58:18;;;;;;;;;;;18.70;92.60;;;;;;6067811;23;20241;-79
2023/10/23 01:00:44;;;;;;;;;;;18.50;92.80;;;;;;6067703;23;20357;-79
2023/10/23 01:03:10;;;;;;;;;;;18.80;92.70;;;;;;6067661;23;19942;-79
2023/10/23 01:05:37;;;;;;;;;;;18.70;92.80;;;;;;6067756;23;19906;-79
2023/10/23 01:08:03;;;;;;;;;;;18.80;92.90;;;;;;6067439;23;19905;-73
2023/10/23 01:10:29;;;;;;;;;;;18.70;92.60;;;;;;6067205;23;19915;-74
2023/10/23 01:12:56;;;;;;;;;;;18.70;92.80;;;;;;6067249;23;19905;-73
2023/10/23 01:15:22;;;;;;;;;;;18.80;92.90;;;;;;6067783;23;20318;-73
2023/10/23 01:17:51;;;;;;;;;;;18.90;92.80;;;;;;6067202;23;19922;-73
2023/10/23 01:20:17;;;;;;;;;;;18.70;90.60;;;;;;6067310;23;19902;-73
2023/10/23 01:22:43;;;;;;;;;;;18.80;92.60;;;;;;6067313;23;19909;-73
2023/10/23 01:25:16;;;;;;;;;;;18.70;92.80;;;;;;6068218;23;20202;-79
2023/10/23 01:27:42;;;;;;;;;;;18.90;90.60;;;;;;6067577;23;19949;-79
2023/10/23 01:30:08;;;;;;;;;;;18.70;92.70;;;;;;6076957;23;19902;-79
2023/10/23 01:32:34;;;;;;;;;;;18.70;92.20;;;;;;6066977;23;19910;-79
2023/10/23 01:34:59;;;;;;;;;;;18.70;92.80;;;;;;6066964;23;19956;-74
2023/10/23 01:37:25;;;;;;;;;;;18.70;92.90;;;;;;6066995;23;19902;-73
2023/10/23 01:39:50;;;;;;;;;;;18.70;92.70;;;;;;6067766;23;19902;-74
2023/10/23 01:42:16;;;;;;;;;;;18.80;92.90;;;;;;6068584;23;20373;-74
2023/10/23 01:44:41;;;;;;;;;;;18.70;92.90;;;;;;6068746;23;19944;-74
2023/10/23 01:47:07;;;;;;;;;;;18.80;92.70;;;;;;6069263;23;19901;-74
2023/10/23 01:49:32;;;;;;;;;;;18.80;92.80;;;;;;6068684;23;19909;-73
2023/10/23 01:51:58;;;;;;;;;;;18.80;92.70;;;;;;6069708;23;19910;-81
2023/10/23 01:54:23;;;;;;;;;;;18.80;92.80;;;;;;6068573;23;20410;-81
2023/10/23 01:56:49;;;;;;;;;;;18.70;92.70;;;;;;6068612;23;19902;-80
2023/10/23 01:59:14;;;;;;;;;;;18.70;92.90;;;;;;6068678;23;19905;-81
2023/10/23 02:01:40;;;;;;;;;;;18.70;92.70;;;;;;6068613;23;19902;-80
2023/10/23 02:04:06;;;;;;;;;;;18.70;92.80;;;;;;6068647;23;19902;-81
2023/10/23 02:06:32;;;;;;;;;;;18.70;92.80;;;;;;6044045;23;19902;-81
2023/10/23 02:08:58;;;;;;;;;;;18.70;92.60;;;;;;6068542;23;19924;-81
2023/10/23 02:11:23;;;;;;;;;;;18.70;92.60;;;;;;6068442;23;19913;-80
2023/10/23 02:13:49;;;;;;;;;;;18.70;92.90;;;;;;6068488;23;19902;-81
2023/10/23 02:16:14;;;;;;;;;;;17.30;92.20;;;;;;6068433;23;19928;-80
2023/10/23 02:18:40;;;;;;;;;;;18.70;92.70;;;;;;6068572;23;19901;-80
2023/10/23 02:21:05;;;;;;;;;;;18.70;92.60;;;;;;6069075;23;20000;-74
2023/10/23 02:23:32;;;;;;;;;;;18.70;92.80;;;;;;6068420;23;19902;-74
2023/10/23 02:25:57;;;;;;;;;;;18.80;92.80;;;;;;6068339;23;19902;-74
2023/10/23 02:28:23;;;;;;;;;;;18.80;92.80;;;;;;6068441;23;19901;-74
2023/10/23 02:30:48;;;;;;;;;;;18.80;92.80;;;;;;6068282;23;19909;-73
2023/10/23 02:33:14;;;;;;;;;;;18.80;93.00;;;;;;6068928;23;19910;-80
2023/10/23 02:35:39;;;;;;;;;;;18.80;92.80;;;;;;6068324;23;20113;-78
2023/10/23 02:38:05;;;;;;;;;;;18.70;92.80;;;;;;6068169;23;19901;-79
2023/10/23 02:40:30;;;;;;;;;;;18.80;92.70;;;;;;6068941;23;19924;-78
2023/10/23 02:42:56;;;;;;;;;;;18.70;92.70;;;;;;6068050;23;20246;-78
2023/10/23 02:45:22;;;;;;;;;;;18.70;92.60;;;;;;6068157;23;20289;-78
2023/10/23 02:47:47;;;;;;;;;;;18.70;92.60;;;;;;6068194;23;19901;-78
2023/10/23 02:50:13;;;;;;;;;;;18.80;92.80;;;;;;6068376;23;19902;-72
2023/10/23 02:52:38;;;;;;;;;;;18.70;92.60;;;;;;6067803;23;19916;-72
2023/10/23 02:55:04;;;;;;;;;;;18.70;92.70;;;;;;6068077;23;19929;-72
2023/10/23 02:57:29;;;;;;;;;;;18.80;92.00;;;;;;6068059;23;19949;-72
2023/10/23 02:59:55;;;;;;;;;;;18.80;92.70;;;;;;6068159;23;20313;-72
2023/10/23 03:02:21;;;;;;;;;;;18.70;92.60;;;;;;6067949;23;20334;-79
2023/10/23 03:04:46;;;;;;;;;;;18.70;92.60;;;;;;6068053;23;19902;-79
2023/10/23 03:07:12;;;;;;;;;;;18.80;92.70;;;;;;6067873;23;19917;-79
2023/10/23 03:09:37;;;;;;;;;;;18.80;92.70;;;;;;6068578;23;19909;-79
2023/10/23 03:12:03;;;;;;;;;;;18.80;92.80;;;;;;6068446;23;19996;-79
2023/10/23 03:14:29;;;;;;;;;;;18.70;92.40;;;;;;6067899;23;20384;-79
2023/10/23 03:16:54;;;;;;;;;;;18.60;92.70;;;;;;6067888;23;19902;-79
2023/10/23 03:19:22;;;;;;;;;;;18.60;92.60;;;;;;6068467;23;19976;-79
2023/10/23 03:21:48;;;;;;;;;;;18.90;92.70;;;;;;6067930;23;20014;-79
2023/10/23 03:24:14;;;;;;;;;;;18.70;92.70;;;;;;6067761;23;19902;-79
2023/10/23 03:26:40;;;;;;;;;;;18.70;92.70;;;;;;6067833;23;19928;-79
2023/10/23 03:29:06;;;;;;;;;;;18.70;92.60;;;;;;6068009;23;20314;-73
2023/10/23 03:31:32;;;;;;;;;;;18.80;92.70;;;;;;6067794;23;20440;-73
2023/10/23 03:33:58;;;;;;;;;;;18.70;92.60;;;;;;6067814;23;19960;-73
2023/10/23 03:36:24;;;;;;;;;;;18.70;92.80;;;;;;6067712;23;20254;-73
2023/10/23 03:38:49;;;;;;;;;;;18.70;92.80;;;;;;6067747;23;19942;-73
2023/10/23 03:41:15;;;;;;;;;;;18.60;92.50;;;;;;6067661;23;20306;-73
2023/10/23 03:43:40;;;;;;;;;;;18.70;92.70;;;;;;6067437;23;19914;-73
2023/10/23 03:46:06;;;;;;;;;;;18.60;92.50;;;;;;6068235;23;19909;-73
2023/10/23 03:48:35;;;;;;;;;;;18.70;92.80;;;;;;6067624;23;20229;-73
2023/10/23 03:51:01;;;;;;;;;;;18.70;90.40;;;;;;6067592;23;19909;-73
2023/10/23 03:53:27;;;;;;;;;;;18.50;92.50;;;;;;6067543;23;19909;-73
2023/10/23 03:55:52;;;;;;;;;;;18.70;92.70;;;;;;6067539;23;19957;-73
2023/10/23 03:58:18;;;;;;;;;;;18.90;92.80;;;;;;6067597;23;19901;-72
2023/10/23 04:06:25;;;;;;;;;;;18.70;90.60;;;;;;6106174;23;19996;-72
2023/10/23 04:08:52;;;;;;;;;;;18.70;90.50;;;;;;6070722;23;20321;-72
2023/10/23 04:11:18;;;;;;;;;;;18.70;92.80;;;;;;6096128;23;19909;-72
2023/10/23 04:13:43;;;;;;;;;;;18.70;92.70;;;;;;6096075;23;19942;-72
2023/10/23 04:16:09;;;;;;;;;;;18.70;92.90;;;;;;6096256;23;19908;-74
2023/10/23 04:18:34;;;;;;;;;;;18.70;92.80;;;;;;6096722;23;19908;-72
2023/10/23 04:21:07;;;;;;;;;;;18.70;92.80;;;;;;6096185;23;19908;-73
2023/10/23 04:23:33;;;;;;;;;;;18.70;90.60;;;;;;6095909;23;20317;-72
2023/10/23 04:25:58;;;;;;;;;;;18.60;92.70;;;;;;6096701;23;19901;-72
2023/10/23 04:28:24;;;;;;;;;;;18.70;92.80;;;;;;6096002;23;19902;-72
2023/10/23 04:30:50;;;;;;;;;;;18.70;92.90;;;;;;6096715;23;20218;-73
2023/10/23 04:33:19;;;;;;;;;;;18.50;92.70;;;;;;6096748;23;20221;-73
2023/10/23 04:35:45;;;;;;;;;;;18.60;92.60;;;;;;6096563;23;19948;-74
2023/10/23 04:38:10;;;;;;;;;;;18.60;92.80;;;;;;6096164;23;19940;-74
2023/10/23 04:40:36;;;;;;;;;;;18.60;92.70;;;;;;6096044;23;20294;-72
2023/10/23 04:43:01;;;;;;;;;;;19.00;93.10;;;;;;6096119;23;19905;-72
2023/10/23 04:45:27;;;;;;;;;;;18.60;92.70;;;;;;6096005;23;19905;-71
2023/10/23 04:47:52;;;;;;;;;;;18.60;92.90;;;;;;6096168;23;19912;-72
2023/10/23 04:50:18;;;;;;;;;;;18.60;92.90;;;;;;6096181;23;19901;-74
2023/10/23 04:52:44;;;;;;;;;;;18.60;92.80;;;;;;6096176;23;19969;-71
2023/10/23 04:55:09;;;;;;;;;;;18.50;92.70;;;;;;6095958;23;19901;-73
2023/10/23 04:57:35;;;;;;;;;;;18.60;92.80;;;;;;6095999;23;19965;-71
2023/10/23 05:00:00;;;;;;;;;;;18.60;92.90;;;;;;6096054;23;19908;-71
2023/10/23 05:02:26;;;;;;;;;;;18.60;92.70;;;;;;6077696;23;19913;-73
2023/10/23 05:04:51;;;;;;;;;;;18.70;92.90;;;;;;6042307;23;20495;-73
2023/10/23 05:07:17;;;;;;;;;;;18.60;92.70;;;;;;6067255;23;20325;-73
2023/10/23 05:09:42;;;;;;;;;;;18.60;92.80;;;;;;6067781;23;19905;-73
2023/10/23 05:12:08;;;;;;;;;;;18.80;92.80;;;;;;6067760;23;19916;-73
2023/10/23 05:14:33;;;;;;;;;;;18.60;92.70;;;;;;6067868;23;19951;-80
2023/10/23 05:16:59;;;;;;;;;;;18.60;92.90;;;;;;6069233;23;19902;-74
2023/10/23 05:19:25;;;;;;;;;;;18.60;93.00;;;;;;6069148;23;19908;-74
2023/10/23 05:21:50;;;;;;;;;;;18.60;93.10;;;;;;6069171;23;19909;-78
2023/10/23 05:24:16;;;;;;;;;;;18.60;93.00;;;;;;6069032;23;19901;-73
2023/10/23 05:26:43;;;;;;;;;;;;;;;;;;6069201;23;19906;-70
2023/10/23 05:29:08;;;;;;;;;;;18.60;92.30;;;;;;6076265;23;19901;-73
2023/10/23 05:31:33;;;;;;;;;;;18.60;93.00;;;;;;6069581;23;19910;-80
2023/10/23 05:33:59;;;;;;;;;;;18.60;93.30;;;;;;6069034;23;20469;-84
2023/10/23 05:36:25;;;;;;;;;;;18.60;93.20;;;;;;6069705;23;19940;-81
2023/10/23 05:38:51;;;;;;;;;;;18.60;93.40;;;;;;6069118;23;19905;-87
2023/10/23 05:41:16;;;;;;;;;;;18.60;93.30;;;;;;6068990;23;19909;-82
2023/10/23 05:43:43;;;;;;;;;;;18.70;93.30;;;;;;6069631;23;19902;-83
2023/10/23 05:46:09;;;;;;;;;;;18.70;93.30;;;;;;6068987;23;19949;-82
2023/10/23 05:48:36;;;;;;;;;;;18.70;93.30;;;;;;6069519;23;19906;-82
2023/10/23 05:51:03;;;;;;;;;;;18.80;93.30;;;;;;6069370;23;19914;-80
2023/10/23 05:53:29;;;;;;;;;;;18.70;93.40;;;;;;6069220;23;20228;-78
2023/10/23 05:56:04;;;;;;;;;;;18.70;93.30;;;;;;6069002;23;20421;-79
2023/10/23 05:58:31;;;;;;;;;;;18.70;91.10;;;;;;6070000;23;19902;-76
2023/10/23 06:00:56;;;;;;;;;;;18.60;93.10;;;;;;6071013;23;19901;-78
2023/10/23 06:03:22;;;;;;;;;;;18.60;93.30;;;;;;6070457;23;20094;-78
2023/10/23 06:05:47;;;;;;;;;;;18.70;93.40;;;;;;6070525;23;19901;-79
2023/10/23 06:08:13;;;;;;;;;;;18.70;93.40;;;;;;6070518;23;19959;-80
2023/10/23 06:10:43;;;;;;;;;;;18.80;93.30;;;;;;6070487;23;19985;-79
2023/10/23 06:13:08;;;;;;;;;;;18.80;91.10;;;;;;6080229;23;19912;-79
2023/10/23 06:15:34;;;;;;;;;;;18.80;93.30;;;;;;6070177;23;19984;-78
2023/10/23 06:18:01;;;;;;;;;;;18.80;93.30;;;;;;6070578;23;19949;-78
2023/10/23 06:20:27;;;;;;;;;;;18.70;93.40;;;;;;6070701;23;19972;-77
2023/10/23 06:22:53;;;;;;;;;;;18.70;93.20;;;;;;6070469;23;20222;-76
2023/10/23 06:25:19;;;;;;;;;;;18.80;93.30;;;;;;6070002;23;19909;-79
2023/10/23 06:27:45;;;;;;;;;;;18.80;93.30;;;;;;6070669;23;19908;-78
2023/10/23 06:30:11;;;;;;;;;;;18.70;93.20;;;;;;6071277;23;19901;-78
2023/10/23 06:32:37;;;;;;;;;;;18.70;92.40;;;;;;6070264;23;19920;-77
2023/10/23 06:35:04;;;;;;;;;;;18.70;93.10;;;;;;6069592;23;19906;-77
2023/10/23 06:37:33;;;;;;;;;;;18.70;92.60;;;;;;6070347;23;19902;-77
2023/10/23 06:39:59;;;;;;;;;;;18.80;91.00;;;;;;6070218;23;19901;-78
2023/10/23 06:42:25;;;;;;;;;;;18.70;93.30;;;;;;6069914;23;19956;-75
2023/10/23 06:44:51;;;;;;;;;;;18.70;92.90;;;;;;6069444;23;19901;-75
2023/10/23 06:47:16;;;;;;;;;;;18.90;93.30;;;;;;6069979;23;19901;-76
2023/10/23 06:49:44;;;;;;;;;;;18.80;93.30;;;;;;6069909;23;19902;-76
2023/10/23 06:52:12;;;;;;;;;;;18.60;90.90;;;;;;6069348;23;19910;-74
2023/10/23 06:54:38;;;;;;;;;;;18.80;91.00;;;;;;6068592;23;19902;-76
2023/10/23 06:57:07;;;;;;;;;;;18.80;93.10;;;;;;6068690;23;19901;-76
2023/10/23 06:59:33;;;;;;;;;;;18.70;92.10;;;;;;6068162;23;19913;-74
2023/10/23 07:02:00;;;;;;;;;;;18.70;93.00;;;;;;6068155;23;19909;-73
2023/10/23 07:04:26;;;;;;;;;;;18.80;93.20;;;;;;6068101;23;19902;-73
2023/10/23 07:06:51;;;;;;;;;;;18.80;93.30;;;;;;6068035;23;19931;-73
2023/10/23 07:09:19;;;;;;;;;;;18.90;93.30;;;;;;6068074;23;20305;-78
2023/10/23 07:11:51;;;;;;;;;;;18.80;91.30;;;;;;6068059;23;19910;-78
2023/10/23 07:14:16;;;;;;;;;;;18.80;91.00;;;;;;6067903;23;19901;-79
2023/10/23 07:16:42;;;;;;;;;;;18.90;93.20;;;;;;6067989;23;20490;-77
2023/10/23 07:19:08;;;;;;;;;;;19.00;93.20;;;;;;6067881;23;19976;-77
2023/10/23 07:21:33;;;;;;;;;;;18.80;93.30;;;;;;6068437;23;19906;-77
2023/10/23 07:23:59;;;;;;;;;;;18.90;93.20;;;;;;6067932;23;19989;-77
2023/10/23 07:26:24;;;;;;;;;;;18.80;93.00;;;;;;6068479;23;19902;-73
2023/10/23 07:28:50;;;;;;;;;;;18.80;93.00;;;;;;6067936;23;19902;-73
2023/10/23 07:31:16;;;;;;;;;;;18.80;93.50;;;;;;6067481;23;19905;-73
2023/10/23 07:33:42;;;;;;;;;;;18.60;93.00;;;;;;6077560;23;19901;-75
2023/10/23 07:36:10;;;;;;;;;;;18.80;93.00;;;;;;6067617;23;20373;-73
2023/10/23 07:38:36;;;;;;;;;;;18.70;93.20;;;;;;6068131;23;19902;-74
2023/10/23 07:41:02;;;;;;;;;;;18.80;93.00;;;;;;6068397;23;19909;-73
2023/10/23 07:43:28;;;;;;;;;;;18.90;92.90;;;;;;6067776;23;20321;-75
2023/10/23 07:45:53;;;;;;;;;;;18.70;93.20;;;;;;6068078;23;19945;-79
2023/10/23 07:48:20;;;;;;;;;;;18.90;93.50;;;;;;6068324;23;19905;-75
2023/10/23 07:50:45;;;;;;;;;;;18.90;93.20;;;;;;6067710;23;19901;-75
2023/10/23 07:53:11;;;;;;;;;;;18.90;93.20;;;;;;6067812;23;19928;-73
2023/10/23 07:55:37;;;;;;;;;;;18.90;93.20;;;;;;6068308;23;19961;-75
2023/10/23 07:58:03;;;;;;;;;;;18.80;92.90;;;;;;6067801;23;19906;-75
2023/10/23 08:00:28;;;;;;;;;;;18.90;93.10;;;;;;6067656;23;19973;-75
2023/10/23 08:02:54;;;;;;;;;;;18.80;92.90;;;;;;6067333;23;20226;-73
2023/10/23 08:05:20;;;;;;;;;;;18.80;93.00;;;;;;6067655;23;19901;-72
2023/10/23 08:07:45;;;;;;;;;;;18.90;93.20;;;;;;6072183;23;20344;-80
2023/10/23 08:10:11;;;;;;;;;;;18.90;93.10;;;;;;6068531;23;19969;-80
2023/10/23 08:12:37;;;;;;;;;;;18.90;93.00;;;;;;6068120;23;19909;-77
2023/10/23 08:15:02;;;;;;;;;;;18.90;93.10;;;;;;6067817;23;19958;-77
2023/10/23 08:17:28;;;;;;;;;;;18.90;93.10;;;;;;6067716;23;19909;-78
2023/10/23 08:19:54;;;;;;;;;;;18.80;92.90;;;;;;6067008;23;19902;-78
2023/10/23 08:22:19;;;;;;;;;;;18.90;93.10;;;;;;6067507;23;19908;-77
2023/10/23 08:24:45;;;;;;;;;;;18.90;92.90;;;;;;6067688;23;19923;-77
2023/10/23 08:27:11;;;;;;;;;;;18.90;92.90;;;;;;6067410;23;19989;-77
2023/10/23 08:29:36;;;;;;;;;;;19.00;93.10;;;;;;6068090;23;19956;-77
2023/10/23 08:32:02;;;;;;;;;;;19.00;93.00;;;;;;6067476;23;19921;-77
2023/10/23 08:34:27;;;;;;;;;;;18.90;92.80;;;;;;6068018;23;19902;-77
2023/10/23 08:36:53;;;;;;;;;;;19.00;93.10;;;;;;6067503;23;20237;-78
2023/10/23 08:39:19;;;;;;;;;;;18.90;93.10;;;;;;6067443;23;19902;-78
2023/10/23 08:41:45;;;;;;;;;;;18.90;93.00;;;;;;6067363;23;19902;-78
2023/10/23 08:44:11;;;;;;;;;;;19.00;93.10;;;;;;6067354;23;19976;-77
2023/10/23 08:46:37;;;;;;;;;;;18.90;93.20;;;;;;6066844;23;20281;-77
2023/10/23 08:49:03;;;;;;;;;;;19.00;93.20;;;;;;6067175;23;19989;-77
2023/10/23 08:51:30;;;;;;;;;;;18.90;93.00;;;;;;6068534;23;19984;-75
2023/10/23 08:54:01;;;;;;;;;;;20.40;93.60;;;;;;6067957;23;19965;-75
2023/10/23 08:56:27;;;;;;;;;;;18.90;92.90;;;;;;6077157;23;20240;-75
2023/10/23 08:58:57;;;;;;;;;;;18.90;92.90;;;;;;6067823;23;19976;-75
2023/10/23 09:01:23;;;;;;;;;;;18.90;92.90;;;;;;6067689;23;20232;-74
2023/10/23 09:03:49;;;;;;;;;;;19.00;93.10;;;;;;6077065;23;19956;-87
2023/10/23 09:06:18;;;;;;;;;;;19.00;92.90;;;;;;6068456;23;19908;-88
2023/10/23 09:08:44;;;;;;;;;;;18.90;90.90;;;;;;6069133;23;19972;-90
2023/10/23 09:11:10;;;;;;;;;;;19.00;93.20;;;;;;6068119;23;19963;-84
2023/10/23 09:13:38;;;;;;;;;;;19.00;93.00;;;;;;6066631;23;19901;-84
2023/10/23 09:16:05;;;;;;;;;;;19.00;93.20;;;;;;6067358;23;19910;-82
2023/10/23 09:18:30;;;;;;;;;;;19.00;92.90;;;;;;6067874;23;19957;-82
2023/10/23 09:20:57;;;;;;;;;;;18.90;92.90;;;;;;6042296;23;19906;-82
2023/10/23 09:23:22;;;;;;;;;;;18.90;93.00;;;;;;6067545;23;19901;-82
2023/10/23 09:25:48;;;;;;;;;;;18.90;93.10;;;;;;6067204;23;19993;-82
2023/10/23 09:28:13;;;;;;;;;;;19.00;93.10;;;;;;6067341;23;19908;-82
2023/10/23 09:30:39;;;;;;;;;;;18.90;93.10;;;;;;6067284;23;20297;-82
2023/10/23 09:33:05;;;;;;;;;;;19.00;93.20;;;;;;6067245;23;19901;-82
2023/10/23 09:35:31;;;;;;;;;;;18.90;93.10;;;;;;6067335;23;19980;-81
2023/10/23 09:37:56;;;;;;;;;;;19.00;93.10;;;;;;6066783;23;20284;-81
2023/10/23 09:40:22;;;;;;;;;;;19.20;93.00;;;;;;6067354;23;19945;-77
2023/10/23 09:42:47;;;;;;;;;;;19.20;93.10;;;;;;6067029;23;19944;-83
2023/10/23 09:45:15;;;;;;;;;;;19.00;93.00;;;;;;6067328;23;20241;-78
2023/10/23 09:47:41;;;;;;;;;;;19.00;93.00;;;;;;6067635;23;20225;-83
2023/10/23 09:50:07;;;;;;;;;;;19.10;93.00;;;;;;6067466;23;19902;-71
2023/10/23 09:52:34;;;;;;;;;;;19.00;92.60;;;;;;6067567;23;19973;-71
2023/10/23 09:55:04;;;;;;;;;;;19.00;92.90;;;;;;6067442;23;19906;-73
2023/10/23 09:57:33;;;;;;;;;;;19.30;90.80;;;;;;6066938;23;19902;-73
2023/10/23 10:00:00;;;;;;;;;;;19.00;93.10;;;;;;6066910;23;19901;-73
2023/10/23 10:02:29;;;;;;;;;;;19.00;92.80;;;;;;6068497;23;19914;-74
2023/10/23 10:04:54;;;;;;;;;;;19.00;93.00;;;;;;6068655;23;19901;-72
2023/10/23 10:07:20;;;;;;;;;;;19.00;92.40;;;;;;6069224;23;19909;-73
2023/10/23 10:09:45;;;;;;;;;;;19.20;93.20;;;;;;6068212;23;19909;-73
2023/10/23 10:12:11;;;;;;;;;;;19.00;92.80;;;;;;6068641;23;20390;-73
2023/10/23 10:14:37;;;;;;;;;;;19.10;93.00;;;;;;6068674;23;19909;-72
2023/10/23 10:17:04;;;;;;;;;;;19.10;93.10;;;;;;6068545;23;19909;-73
2023/10/23 10:19:30;;;;;;;;;;;19.10;93.10;;;;;;6069353;23;19901;-73
2023/10/23 10:22:04;;;;;;;;;;;19.10;93.10;;;;;;6068534;23;19980;-74
2023/10/23 10:24:32;;;;;;;;;;;19.10;90.80;;;;;;6068673;23;20285;-72
2023/10/23 10:27:00;;;;;;;;;;;19.20;93.10;;;;;;6069062;23;20282;-74
2023/10/23 10:29:25;;;;;;;;;;;19.30;93.20;;;;;;6068528;23;19908;-73
2023/10/23 10:32:05;;;;;;;;;;;18.70;92.90;;;;;;6068330;23;19996;-72
2023/10/23 10:34:34;;;;;;;;;;;19.10;90.80;;;;;;6078098;23;19928;-73
2023/10/23 10:37:00;;;;;;;;;;;19.10;90.80;;;;;;6068581;23;20033;-73
2023/10/23 10:39:55;;;;;;;;;;;18.80;92.80;;;;;;6068593;23;19908;-72
2023/10/23 10:42:22;;;;;;;;;;;19.10;90.60;;;;;;6043552;23;19942;-74
2023/10/23 10:44:54;;;;;;;;;;;19.10;92.80;;;;;;6068218;23;19901;-74
2023/10/23 10:47:43;;;;;;;;;;;19.10;90.70;;;;;;6068354;23;19902;-77
2023/10/23 10:50:12;;;;;;;;;;;19.10;92.90;;;;;;6068313;23;19901;-83
2023/10/23 10:52:39;;;;;;;;;;;19.10;92.00;;;;;;6068609;23;19992;-86
2023/10/23 10:55:11;;;;;;;;;;;19.00;92.80;;;;;;6068109;23;19932;-83
2023/10/23 10:57:39;;;;;;;;;;;19.10;90.80;;;;;;6068412;23;19902;-82
2023/10/23 11:00:05;;;;;;;;;;;19.10;93.20;;;;;;6068407;23;19909;-88
2023/10/23 11:02:31;;;;;;;;;;;19.10;93.00;;;;;;6078075;23;19913;-79
2023/10/23 11:04:57;;;;;;;;;;;19.10;93.00;;;;;;6068494;23;19908;-71
2023/10/23 11:07:23;;;;;;;;;;;19.10;93.10;;;;;;6068318;23;19984;-71
2023/10/23 11:09:51;;;;;;;;;;;19.20;92.90;;;;;;6068038;23;19909;-71
2023/10/23 11:12:18;;;;;;;;;;;19.10;93.20;;;;;;6067126;23;19980;-71
2023/10/23 11:14:44;;;;;;;;;;;19.10;93.00;;;;;;6067985;23;19913;-71
2023/10/23 11:17:09;;;;;;;;;;;19.20;93.30;;;;;;6067787;23;19901;-71
2023/10/23 11:19:35;;;;;;;;;;;19.20;93.20;;;;;;6067836;23;19929;-71
2023/10/23 11:22:14;;;;;;;;;;;19.20;93.10;;;;;;6067861;23;19984;-71
2023/10/23 11:24:39;;;;;;;;;;;19.10;90.90;;;;;;6068832;23;19973;-87
2023/10/23 11:27:05;;;;;;;;;;;19.20;93.30;;;;;;6068796;23;19905;-89
2023/10/23 11:29:38;;;;;;;;;;;18.80;93.20;;;;;;6068341;23;19941;-89
2023/10/23 11:32:04;;;;;;;;;;;19.20;91.00;;;;;;6068204;23;20242;-88
2023/10/23 11:34:30;;;;;;;;;;;19.20;92.80;;;;;;6068686;23;20318;-89
2023/10/23 11:36:56;;;;;;;;;;;19.20;93.40;;;;;;6069120;23;19908;-89
2023/10/23 11:39:21;;;;;;;;;;;19.30;93.40;;;;;;6069234;23;19901;-89
2023/10/23 11:41:54;;;;;;;;;;;19.30;93.40;;;;;;6068635;23;20011;-71
2023/10/23 11:44:20;;;;;;;;;;;19.30;91.20;;;;;;6068250;23;19902;-69
2023/10/23 11:46:46;;;;;;;;;;;19.30;93.40;;;;;;6068370;23;19980;-71
2023/10/23 11:49:12;;;;;;;;;;;19.30;93.50;;;;;;6068202;23;20181;-70
2023/10/23 11:51:38;;;;;;;;;;;19.30;93.40;;;;;;6068226;23;19909;-71
2023/10/23 11:54:04;;;;;;;;;;;19.40;93.40;;;;;;6068235;23;19908;-69
2023/10/23 11:56:32;;;;;;;;;;;19.30;93.20;;;;;;6067896;23;19909;-70
2023/10/23 11:59:00;;;;;;;;;;;19.30;93.20;;;;;;6068746;23;19902;-88
2023/10/23 12:01:25;;;;;;;;;;;19.30;93.30;;;;;;6068531;23;20309;-87
2023/10/23 12:03:51;;;;;;;;;;;18.90;93.20;;;;;;6067738;23;19902;-87
2023/10/23 12:06:16;;;;;;;;;;;19.40;93.40;;;;;;6066893;23;20049;-88
2023/10/23 12:08:42;;;;;;;;;;;19.50;93.40;;;;;;6066299;23;19909;-86
2023/10/23 12:11:08;;;;;;;;;;;19.40;93.40;;;;;;6065949;23;19906;-70
2023/10/23 12:13:33;;;;;;;;;;;19.40;93.40;;;;;;6065643;23;19901;-70
2023/10/23 12:15:59;;;;;;;;;;;19.40;93.40;;;;;;6065693;23;20321;-70
2023/10/23 12:18:26;;;;;;;;;;;19.40;93.40;;;;;;6065683;23;19905;-70
2023/10/23 12:20:51;;;;;;;;;;;19.50;93.50;;;;;;6067806;23;19973;-69
2023/10/23 12:23:17;;;;;;;;;;;19.40;93.40;;;;;;6067431;23;20309;-69
2023/10/23 12:25:42;;;;;;;;;;;19.40;93.30;;;;;;6067024;23;19905;-69
2023/10/23 12:28:08;;;;;;;;;;;19.40;93.30;;;;;;6068286;23;20322;-85
2023/10/23 12:30:33;;;;;;;;;;;19.50;93.20;;;;;;6067765;23;19909;-83
2023/10/23 12:33:01;;;;;;;;;;;19.40;93.30;;;;;;6067497;23;19916;-87
2023/10/23 12:35:26;;;;;;;;;;;19.50;93.40;;;;;;6067453;23;19936;-84
2023/10/23 12:37:51;;;;;;;;;;;19.50;93.40;;;;;;6067804;23;19901;-84
2023/10/23 12:40:17;;;;;;;;;;;19.70;93.40;;;;;;6067616;23;19956;-77
2023/10/23 12:42:42;;;;;;;;;;;19.50;93.20;;;;;;6067271;23;20245;-76
2023/10/23 12:45:08;;;;;;;;;;;19.60;93.50;;;;;;6067220;23;19901;-77
2023/10/23 12:47:34;;;;;;;;;;;19.50;93.30;;;;;;6067428;23;19925;-84
2023/10/23 12:50:00;;;;;;;;;;;19.40;93.30;;;;;;6066665;23;19908;-78
2023/10/23 12:52:25;;;;;;;;;;;19.40;93.30;;;;;;6067837;23;19995;-82
2023/10/23 12:54:51;;;;;;;;;;;19.40;93.40;;;;;;6067336;23;19902;-84
2023/10/23 12:57:16;;;;;;;;;;;19.50;93.30;;;;;;6067963;23;19902;-70
2023/10/23 12:59:42;;;;;;;;;;;19.50;93.40;;;;;;6067223;23;20348;-70
2023/10/23 13:02:08;;;;;;;;;;;19.50;93.20;;;;;;6066934;23;19914;-69
2023/10/23 13:04:33;;;;;;;;;;;19.60;93.50;;;;;;6067307;23;19984;-69
2023/10/23 13:06:58;;;;;;;;;;;19.50;93.40;;;;;;6067764;23;20221;-69
2023/10/23 13:09:24;;;;;;;;;;;19.50;93.40;;;;;;6067179;23;20231;-79
2023/10/23 13:11:51;;;;;;;;;;;19.60;93.30;;;;;;6067661;23;19916;-79
2023/10/23 13:14:17;;;;;;;;;;;19.50;93.40;;;;;;6067755;23;20229;-78
2023/10/23 13:16:42;;;;;;;;;;;19.50;93.30;;;;;;6067137;23;19909;-79
2023/10/23 13:19:08;;;;;;;;;;;19.50;93.30;;;;;;6067147;23;19901;-80
2023/10/23 13:21:33;;;;;;;;;;;19.60;93.50;;;;;;6067850;23;19906;-81
2023/10/23 13:23:59;;;;;;;;;;;19.50;93.50;;;;;;6067176;23;19957;-81
2023/10/23 13:26:25;;;;;;;;;;;19.60;93.40;;;;;;6067278;23;20321;-83
2023/10/23 13:28:50;;;;;;;;;;;19.60;93.30;;;;;;6067413;23;19901;-79
2023/10/23 13:31:16;;;;;;;;;;;19.60;93.70;;;;;;6067207;23;19945;-81
2023/10/23 13:33:41;;;;;;;;;;;19.60;93.50;;;;;;6067140;23;19909;-82
2023/10/23 13:36:07;;;;;;;;;;;19.50;93.50;;;;;;6068351;23;19902;-85
2023/10/23 13:38:33;;;;;;;;;;;19.50;93.30;;;;;;6069465;23;19911;-84
2023/10/23 13:41:00;;;;;;;;;;;19.60;93.60;;;;;;6068963;23;19937;-83
2023/10/23 13:43:26;;;;;;;;;;;19.40;93.40;;;;;;6069022;23;20222;-83
2023/10/23 13:45:52;;;;;;;;;;;19.70;93.40;;;;;;6043594;23;20372;-83
2023/10/23 13:48:17;;;;;;;;;;;19.40;93.20;;;;;;6068831;23;19901;-83
2023/10/23 13:50:48;;;;;;;;;;;19.60;93.50;;;;;;6068631;23;19912;-84
2023/10/23 13:53:16;;;;;;;;;;;19.50;93.40;;;;;;6078620;23;19961;-79
2023/10/23 13:55:41;;;;;;;;;;;19.60;93.50;;;;;;6043345;23;19902;-79
2023/10/23 13:58:07;;;;;;;;;;;19.60;93.50;;;;;;6068658;23;20378;-79
2023/10/23 14:00:32;;;;;;;;;;;19.60;93.50;;;;;;6068745;23;19906;-79
2023/10/23 14:02:58;;;;;;;;;;;19.50;93.20;;;;;;6068469;23;20337;-71
2023/10/23 14:05:24;;;;;;;;;;;19.50;93.40;;;;;;6069268;23;19901;-72
2023/10/23 14:07:50;;;;;;;;;;;19.60;93.40;;;;;;6069087;23;19902;-72
2023/10/23 14:10:16;;;;;;;;;;;19.60;93.50;;;;;;6069160;23;20229;-70
2023/10/23 14:12:41;;;;;;;;;;;19.60;93.40;;;;;;6068463;23;20312;-69
2023/10/23 14:15:07;;;;;;;;;;;19.50;93.40;;;;;;6068442;23;20182;-70
2023/10/23 14:17:33;;;;;;;;;;;19.50;93.30;;;;;;6068461;23;19917;-71
2023/10/23 14:19:58;;;;;;;;;;;19.50;93.50;;;;;;6068422;23;20045;-71